createdAt,value
2022-08-27T00:01:02.625Z,100021.06
2022-08-27T00:03:40.539Z,100017.81
2022-08-27T00:06:15.239Z,100018.03
2022-08-27T00:08:49.663Z,100015.14
2022-08-27T00:11:23.646Z,100017.91
2022-08-27T00:13:56.708Z,100018.48
2022-08-27T00:16:28.831Z,100023.42
2022-08-27T00:19:02.081Z,100026.18
2022-08-27T00:21:34.377Z,100020.20
2022-08-27T00:24:07.104Z,100019.20
2022-08-27T00:26:43.102Z,100018.30
2022-08-27T00:29:15.347Z,100020.98
2022-08-27T00:31:47.212Z,100026.02
2022-08-27T00:34:26.131Z,100030.72
2022-08-27T00:36:58.240Z,100033.45
2022-08-27T00:39:30.330Z,100029.02
2022-08-27T00:42:02.151Z,100027.20
2022-08-27T00:44:34.019Z,100026.52
2022-08-27T00:47:11.927Z,100028.13
2022-08-27T00:49:50.323Z,100028.48
2022-08-27T00:52:27.243Z,100031.73
2022-08-27T00:55:03.506Z,100029.83
2022-08-27T00:57:39.063Z,100031.01
2022-08-27T01:00:17.020Z,100030.31
2022-08-27T01:02:49.349Z,100031.37
2022-08-27T01:05:27.293Z,100028.37
2022-08-27T01:08:04.846Z,100028.09
2022-08-27T01:10:38.577Z,100032.67
2022-08-27T01:13:11.626Z,100030.98
2022-08-27T01:15:44.284Z,100029.59
2022-08-27T01:18:18.223Z,100029.91
2022-08-27T01:20:56.716Z,100027.58
2022-08-27T01:23:38.008Z,100023.23
2022-08-27T01:26:14.328Z,100030.54
2022-08-27T01:28:47.045Z,100029.42
2022-08-27T01:31:17.285Z,100032.95
2022-08-27T01:33:59.567Z,100032.90
2022-08-27T01:36:32.018Z,100038.86
2022-08-27T01:39:03.882Z,100036.47
2022-08-27T01:41:37.756Z,100034.90
2022-08-27T01:44:09.924Z,100030.61
2022-08-27T01:46:41.747Z,100025.16
2022-08-27T01:49:13.900Z,100025.84
2022-08-27T01:51:46.217Z,100022.42
2022-08-27T01:54:17.926Z,100025.92
2022-08-27T01:56:49.669Z,100023.66
2022-08-27T01:59:21.514Z,100021.88
2022-08-27T02:01:55.459Z,100021.27
2022-08-27T02:04:27.318Z,100024.36
2022-08-27T02:07:00.197Z,100021.52
2022-08-27T02:09:33.297Z,100021.81
2022-08-27T02:12:08.267Z,100016.35
2022-08-27T02:14:40.721Z,100013.30
2022-08-27T02:17:13.251Z,100011.96
2022-08-27T02:19:43.462Z,100012.41
2022-08-27T02:22:15.421Z,100011.59
2022-08-27T02:24:47.381Z,100017.68
2022-08-27T02:27:19.498Z,100012.38
2022-08-27T02:29:52.283Z,100021.65
2022-08-27T02:32:31.502Z,100024.69
2022-08-27T02:35:05.101Z,100018.06
2022-08-27T02:37:35.344Z,100020.02
2022-08-27T02:40:09.682Z,100021.56
2022-08-27T02:42:41.482Z,100016.92
2022-08-27T02:45:14.473Z,100013.41
2022-08-27T02:47:46.324Z,100013.48
2022-08-27T02:50:18.357Z,100011.14
2022-08-27T02:52:50.686Z,100010.30
2022-08-27T02:55:23.406Z,100004.99
2022-08-27T02:57:55.801Z,100004.02
2022-08-27T03:00:28.743Z,100000.15
2022-08-27T03:03:00.588Z,99998.20
2022-08-27T03:05:32.632Z,99994.04
2022-08-27T03:08:05.071Z,99987.33
2022-08-27T03:10:36.887Z,99990.58
2022-08-27T03:13:08.707Z,99985.63
2022-08-27T03:15:40.565Z,99986.25
2022-08-27T03:18:21.815Z,99983.92
2022-08-27T03:20:55.751Z,99983.40
2022-08-27T03:23:32.967Z,99984.87
2022-08-27T03:26:11.372Z,99985.06
2022-08-27T03:28:43.820Z,99989.61
2022-08-27T03:31:26.932Z,99993.39
2022-08-27T03:34:01.784Z,99988.58
2022-08-27T03:36:33.696Z,99989.71
2022-08-27T03:39:05.564Z,99986.98
2022-08-27T03:41:43.733Z,99984.98
2022-08-27T03:44:27.139Z,99985.52
2022-08-27T03:47:00.140Z,99983.64
2022-08-27T03:49:32.073Z,99984.64
2022-08-27T03:52:05.315Z,99987.15
2022-08-27T03:54:38.318Z,99984.29
2022-08-27T03:57:10.687Z,99993.73
2022-08-27T03:59:42.565Z,99992.20
2022-08-27T04:02:16.361Z,99991.70
2022-08-27T04:04:48.288Z,99992.74
2022-08-27T04:07:20.152Z,99996.46
2022-08-27T04:09:52.166Z,99999.10
2022-08-27T04:12:24.002Z,100002.26
2022-08-27T04:14:55.805Z,100002.90
2022-08-27T04:17:27.658Z,100006.37
2022-08-27T04:20:08.691Z,100009.48
2022-08-27T04:22:51.630Z,100009.27
2022-08-27T04:25:23.432Z,100009.93
2022-08-27T04:27:55.387Z,100016.42
2022-08-27T04:30:27.247Z,100018.40
2022-08-27T04:32:59.268Z,100025.89
2022-08-27T04:35:31.266Z,100027.17
2022-08-27T04:38:03.154Z,100026.38
2022-08-27T04:40:54.700Z,100026.65
2022-08-27T04:43:28.253Z,100025.77
2022-08-27T04:46:00.187Z,100026.42
2022-08-27T04:48:32.017Z,100024.05
2022-08-27T04:51:03.211Z,100026.42
2022-08-27T04:53:35.881Z,100024.71
2022-08-27T04:56:08.545Z,100029.08
2022-08-27T04:58:46.812Z,100029.93
2022-08-27T05:01:21.264Z,100027.48
2022-08-27T05:03:54.206Z,100033.21
2022-08-27T05:06:24.603Z,100023.17
2022-08-27T05:08:58.069Z,100025.11
2022-08-27T05:11:32.424Z,100025.58
2022-08-27T05:14:06.703Z,100029.15
2022-08-27T05:16:39.310Z,100027.80
2022-08-27T05:19:14.820Z,100026.19
2022-08-27T05:21:49.572Z,100023.92
2022-08-27T05:24:22.219Z,100030.01
2022-08-27T05:26:52.501Z,100030.87
2022-08-27T05:29:24.361Z,100026.28
2022-08-27T05:31:56.481Z,100028.05
2022-08-27T05:34:29.190Z,100032.73
2022-08-27T05:37:02.400Z,100023.46
2022-08-27T05:39:34.216Z,100030.32
2022-08-27T05:42:07.294Z,100024.41
2022-08-27T05:44:41.286Z,100022.55
2022-08-27T05:47:13.735Z,100021.98
2022-08-27T05:49:45.796Z,100018.89
2022-08-27T05:52:17.497Z,100020.99
2022-08-27T05:54:49.324Z,100025.16
2022-08-27T05:57:21.302Z,100030.23
2022-08-27T06:00:15.736Z,100027.24
2022-08-27T06:02:47.796Z,100029.04
2022-08-27T06:05:20.085Z,100025.15
2022-08-27T06:07:51.949Z,100024.77
2022-08-27T06:10:23.729Z,100033.64
2022-08-27T06:12:57.143Z,100028.35
2022-08-27T06:15:29.451Z,100027.15
2022-08-27T06:18:01.707Z,100025.19
2022-08-27T06:20:33.595Z,100021.97
2022-08-27T06:23:05.480Z,100028.27
2022-08-27T06:25:40.966Z,100028.10
2022-08-27T06:28:13.595Z,100027.94
2022-08-27T06:30:45.470Z,100021.39
2022-08-27T06:33:17.297Z,100028.20
2022-08-27T06:35:49.256Z,100025.77
2022-08-27T06:38:21.145Z,100030.65
2022-08-27T06:40:53.789Z,100033.45
2022-08-27T06:43:25.264Z,100029.83
2022-08-27T06:45:57.788Z,100025.08
2022-08-27T06:48:29.586Z,100026.68
2022-08-27T06:51:12.484Z,100026.23
2022-08-27T06:53:44.666Z,100020.77
2022-08-27T06:56:17.423Z,100023.17
2022-08-27T06:58:50.009Z,100028.31
2022-08-27T07:01:22.432Z,100028.19
2022-08-27T07:03:57.882Z,100031.79
2022-08-27T07:06:31.906Z,100031.52
2022-08-27T07:09:04.637Z,100040.94
2022-08-27T07:11:37.406Z,100051.20
2022-08-27T07:14:08.273Z,100066.41
2022-08-27T07:16:42.171Z,100060.20
2022-08-27T07:19:17.312Z,100061.61
2022-08-27T07:21:49.343Z,100055.41
2022-08-27T07:24:21.796Z,100061.02
2022-08-27T07:26:53.977Z,100067.56
2022-08-27T07:29:31.717Z,100065.94
2022-08-27T07:32:04.449Z,100064.89
2022-08-27T07:34:36.563Z,100060.88
2022-08-27T07:37:07.523Z,100054.55
2022-08-27T07:39:39.478Z,100056.59
2022-08-27T07:42:28.888Z,100057.22
2022-08-27T07:45:00.879Z,100058.55
2022-08-27T07:47:31.957Z,100062.32
2022-08-27T07:50:03.871Z,100063.79
2022-08-27T07:52:35.855Z,100068.75
2022-08-27T07:55:09.201Z,100066.08
2022-08-27T07:57:42.050Z,100070.98
2022-08-27T08:00:15.388Z,100064.63
2022-08-27T08:02:47.451Z,100066.84
2022-08-27T08:05:20.253Z,100069.44
2022-08-27T08:07:52.736Z,100071.61
2022-08-27T08:10:23.411Z,100067.45
2022-08-27T08:12:55.387Z,100067.48
2022-08-27T08:15:27.273Z,100071.15
2022-08-27T08:17:59.908Z,100077.89
2022-08-27T08:20:56.572Z,100076.11
2022-08-27T08:23:24.442Z,100077.52
2022-08-27T08:25:58.689Z,100080.36
2022-08-27T08:28:31.190Z,100077.84
2022-08-27T08:31:03.285Z,100079.71
2022-08-27T08:33:36.021Z,100081.91
2022-08-27T08:36:12.050Z,100079.54
2022-08-27T08:38:45.896Z,100074.61
2022-08-27T08:41:35.192Z,100074.11
2022-08-27T08:44:16.460Z,100075.13
2022-08-27T08:46:56.543Z,100065.81
2022-08-27T08:49:39.569Z,100067.20
2022-08-27T08:52:30.459Z,100069.23
2022-08-27T08:55:14.360Z,100067.23
2022-08-27T08:57:49.716Z,100065.73
2022-08-27T09:00:21.693Z,100071.13
2022-08-27T09:02:56.504Z,100066.70
2022-08-27T09:05:28.418Z,100066.16
2022-08-27T09:08:32.319Z,100063.42
2022-08-27T09:11:11.895Z,100060.74
2022-08-27T09:13:50.633Z,100060.89
2022-08-27T09:16:23.177Z,100061.08
2022-08-27T09:18:54.353Z,100061.54
2022-08-27T09:21:37.490Z,100061.20
2022-08-27T09:24:20.053Z,100059.29
2022-08-27T09:26:52.461Z,100055.69
2022-08-27T09:29:27.432Z,100053.70
2022-08-27T09:32:01.728Z,100053.45
2022-08-27T09:34:38.897Z,100051.16
2022-08-27T09:37:15.485Z,100057.67
2022-08-27T09:40:01.207Z,100052.25
2022-08-27T09:42:37.621Z,100053.77
2022-08-27T09:45:16.106Z,100050.96
2022-08-27T09:47:51.261Z,100048.86
2022-08-27T09:50:26.236Z,100046.75
2022-08-27T09:53:01.146Z,100046.70
2022-08-27T09:55:44.828Z,100040.20
2022-08-27T09:58:22.968Z,100045.14
2022-08-27T10:03:51.347Z,100048.89
2022-08-27T10:06:31.326Z,100044.62
2022-08-27T10:09:09.341Z,100041.13
2022-08-27T10:11:46.947Z,100047.38
2022-08-27T10:14:24.704Z,100042.83
2022-08-27T10:17:13.035Z,100040.09
2022-08-27T10:19:53.688Z,100037.77
2022-08-27T10:22:37.034Z,100036.98
2022-08-27T10:25:23.965Z,100039.02
2022-08-27T10:28:07.721Z,100037.96
2022-08-27T10:30:59.945Z,100035.36
2022-08-27T10:33:44.697Z,100025.82
2022-08-27T10:36:33.504Z,100025.08
2022-08-27T10:39:12.853Z,100028.11
2022-08-27T10:41:49.756Z,100026.27
2022-08-27T10:44:39.818Z,100027.00
2022-08-27T10:47:29.246Z,100021.25
2022-08-27T10:50:07.821Z,100021.21
2022-08-27T10:52:45.708Z,100020.82
2022-08-27T10:55:27.601Z,100021.52
2022-08-27T10:58:30.380Z,100021.66
2022-08-27T11:01:11.007Z,100021.04
2022-08-27T11:03:47.697Z,100023.21
2022-08-27T11:06:27.271Z,100023.04
2022-08-27T11:09:07.659Z,100023.66
2022-08-27T11:14:39.505Z,100026.91
2022-08-27T11:17:17.828Z,100023.92
2022-08-27T11:19:58.265Z,100024.23
2022-08-27T11:22:35.802Z,100019.25
2022-08-27T11:25:16.672Z,100019.36
2022-08-27T11:27:50.322Z,100015.59
2022-08-27T11:30:32.751Z,100016.02
2022-08-27T11:33:13.982Z,100014.97
2022-08-27T11:36:05.011Z,100020.47
2022-08-27T11:38:52.259Z,100021.05
2022-08-27T11:41:52.691Z,100016.66
2022-08-27T11:44:27.601Z,100017.52
2022-08-27T11:47:11.415Z,100018.93
2022-08-27T11:49:49.099Z,100014.73
2022-08-27T11:52:29.261Z,100019.41
2022-08-27T11:55:25.206Z,100015.84
2022-08-27T11:58:10.116Z,100013.15
2022-08-27T12:00:43.695Z,100010.36
2022-08-27T12:03:30.198Z,100009.83
2022-08-27T12:06:18.937Z,100011.15
2022-08-27T12:08:51.879Z,99998.70
2022-08-27T12:11:36.048Z,99994.39
2022-08-27T12:14:21.578Z,99997.11
2022-08-27T12:17:02.223Z,99991.70
2022-08-27T12:19:49.254Z,99988.73
2022-08-27T12:22:56.405Z,99985.60
2022-08-27T12:25:28.533Z,99987.54
2022-08-27T12:28:03.185Z,99981.12
2022-08-27T12:30:38.095Z,99980.31
2022-08-27T12:33:23.027Z,99981.16
2022-08-27T12:35:58.099Z,99982.20
2022-08-27T12:38:48.022Z,99975.19
2022-08-27T12:41:32.044Z,99975.63
2022-08-27T12:44:09.031Z,99975.58
2022-08-27T12:46:49.746Z,99976.02
2022-08-27T12:49:39.112Z,99978.09
2022-08-27T12:52:30.509Z,99974.98
2022-08-27T12:55:15.250Z,99970.85
2022-08-27T12:57:58.119Z,99968.77
2022-08-27T13:00:39.396Z,99962.95
2022-08-27T13:03:27.177Z,99956.35
2022-08-27T13:06:01.023Z,99959.20
2022-08-27T13:08:35.604Z,99952.67
2022-08-27T13:11:21.922Z,99954.70
2022-08-27T13:14:05.857Z,99956.31
2022-08-27T13:16:40.249Z,99950.02
2022-08-27T13:19:20.802Z,99946.20
2022-08-27T13:21:54.393Z,99946.21
2022-08-27T13:24:33.662Z,99948.66
2022-08-27T13:27:07.519Z,99947.91
2022-08-27T13:29:40.228Z,99957.20
2022-08-27T13:32:15.383Z,99953.41
2022-08-27T13:34:47.976Z,99951.68
2022-08-27T13:37:28.695Z,99946.77
2022-08-27T13:40:00.746Z,99952.70
2022-08-27T13:42:32.123Z,99949.48
2022-08-27T13:45:07.705Z,99949.81
2022-08-27T13:47:47.526Z,99948.41
2022-08-27T13:50:25.284Z,99938.98
2022-08-27T13:53:23.899Z,99938.23
2022-08-27T13:55:57.221Z,99935.02
2022-08-27T13:58:31.700Z,99935.21
2022-08-27T14:01:13.299Z,99934.50
2022-08-27T14:03:56.569Z,99937.59
2022-08-27T14:06:35.709Z,99937.44
2022-08-27T14:09:17.373Z,99929.98
2022-08-27T14:11:49.845Z,99931.22
2022-08-27T14:14:21.728Z,99933.25
2022-08-27T14:17:01.335Z,99932.54
2022-08-27T14:19:36.454Z,99927.98
2022-08-27T14:22:09.205Z,99924.85
2022-08-27T14:24:41.589Z,99925.98
2022-08-27T14:27:20.144Z,99929.73
2022-08-27T14:29:52.234Z,99930.65
2022-08-27T14:32:22.639Z,99921.27
2022-08-27T14:34:54.517Z,99923.09
2022-08-27T14:37:26.575Z,99917.64
2022-08-27T14:39:56.856Z,99920.58
2022-08-27T14:42:29.817Z,99926.80
2022-08-27T14:45:01.503Z,99920.70
2022-08-27T14:47:34.850Z,99924.25
2022-08-27T14:50:08.115Z,99918.96
2022-08-27T14:52:40.760Z,99918.70
2022-08-27T14:55:14.513Z,99919.48
2022-08-27T14:57:46.976Z,99915.88
2022-08-27T15:00:19.788Z,99918.58
2022-08-27T15:02:52.321Z,99922.05
2022-08-27T15:05:25.140Z,99922.02
2022-08-27T15:07:58.148Z,99920.83
2022-08-27T15:10:30.482Z,99923.77
2022-08-27T15:13:02.344Z,99920.65
2022-08-27T15:15:34.908Z,99926.36
2022-08-27T15:18:07.304Z,99924.38
2022-08-27T15:20:40.558Z,99924.02
2022-08-27T15:23:14.817Z,99919.55
2022-08-27T15:25:47.800Z,99922.21
2022-08-27T15:28:20.767Z,99927.14
2022-08-27T15:30:53.301Z,99933.52
2022-08-27T15:33:26.153Z,99932.31
2022-08-27T15:36:03.424Z,99935.90
2022-08-27T15:38:36.248Z,99935.23
2022-08-27T15:41:10.691Z,99936.32
2022-08-27T15:43:44.239Z,99937.92
2022-08-27T15:46:17.202Z,99934.11
2022-08-27T15:48:49.518Z,99937.52
2022-08-27T15:51:27.530Z,99935.08
2022-08-27T15:54:01.083Z,99936.14
2022-08-27T15:56:34.729Z,99940.08
2022-08-27T15:59:07.243Z,99936.73
2022-08-27T16:01:39.788Z,99932.06
2022-08-27T16:04:11.952Z,99925.71
2022-08-27T16:06:44.667Z,99925.42
2022-08-27T16:09:16.805Z,99921.38
2022-08-27T16:11:48.799Z,99919.19
2022-08-27T16:14:21.161Z,99919.44
2022-08-27T16:16:52.930Z,99921.65
2022-08-27T16:19:25.652Z,99916.27
2022-08-27T16:21:58.146Z,99916.22
2022-08-27T16:24:30.754Z,99913.55
2022-08-27T16:27:02.851Z,99914.05
2022-08-27T16:29:35.366Z,99912.98
2022-08-27T16:32:06.211Z,99911.70
2022-08-27T16:34:40.567Z,99904.30
2022-08-27T16:37:12.446Z,99903.64
2022-08-27T16:39:46.879Z,99904.42
2022-08-27T16:42:19.399Z,99907.17
2022-08-27T16:44:51.371Z,99908.27
2022-08-27T16:47:23.079Z,99907.27
2022-08-27T16:50:11.622Z,99909.27
2022-08-27T16:52:57.638Z,99906.50
2022-08-27T16:55:30.160Z,99908.38
2022-08-27T16:58:02.944Z,99907.70
2022-08-27T17:00:37.677Z,99914.83
2022-08-27T17:03:09.987Z,99918.48
2022-08-27T17:05:40.365Z,99922.40
2022-08-27T17:08:13.642Z,99920.15
2022-08-27T17:10:48.116Z,99923.70
2022-08-27T17:13:22.969Z,99937.09
2022-08-27T17:16:01.827Z,99938.06
2022-08-27T17:18:35.506Z,99949.21
2022-08-27T17:21:08.748Z,99951.54
2022-08-27T17:23:43.388Z,99956.30
2022-08-27T17:26:17.678Z,99954.63
2022-08-27T17:28:50.411Z,99958.11
2022-08-27T17:31:28.220Z,99958.45
2022-08-27T17:34:03.987Z,99961.91
2022-08-27T17:36:37.072Z,99958.09
2022-08-27T17:39:09.289Z,99964.32
2022-08-27T17:41:47.010Z,99969.99
2022-08-27T17:44:24.314Z,99973.13
2022-08-27T17:46:58.010Z,99972.44
2022-08-27T17:49:31.010Z,99979.16
2022-08-27T17:52:06.216Z,99981.64
2022-08-27T17:54:41.809Z,99979.64
2022-08-27T17:57:18.529Z,99983.20
2022-08-27T17:59:51.115Z,99985.52
2022-08-27T18:02:29.124Z,99982.23
2022-08-27T18:05:01.997Z,99984.53
2022-08-27T18:07:39.152Z,99983.98
2022-08-27T18:10:14.258Z,99984.35
2022-08-27T18:12:47.025Z,99987.81
2022-08-27T18:15:23.833Z,99992.00
2022-08-27T18:17:57.033Z,99990.72
2022-08-27T18:20:30.691Z,99988.77
2022-08-27T18:23:02.662Z,99992.85
2022-08-27T18:25:36.747Z,99996.29
2022-08-27T18:28:10.924Z,99994.10
2022-08-27T18:30:45.998Z,99996.11
2022-08-27T18:33:18.206Z,99999.09
2022-08-27T18:35:52.061Z,99996.11
2022-08-27T18:38:28.215Z,99995.05
2022-08-27T18:41:00.718Z,100001.44
2022-08-27T18:43:35.172Z,100005.79
2022-08-27T18:46:07.543Z,100005.83
2022-08-27T18:48:38.201Z,100008.71
2022-08-27T18:51:13.302Z,100004.38
2022-08-27T18:53:46.432Z,100009.98
2022-08-27T18:56:21.091Z,100005.59
2022-08-27T18:58:53.066Z,100010.00
2022-08-27T19:01:27.743Z,100013.04
2022-08-27T19:04:00.045Z,100014.48
2022-08-27T19:06:32.072Z,100019.86
2022-08-27T19:09:04.963Z,100017.88
2022-08-27T19:11:36.859Z,100016.98
2022-08-27T19:14:08.810Z,100017.63
2022-08-27T19:16:45.643Z,100021.69
2022-08-27T19:19:18.879Z,100021.73
2022-08-27T19:21:51.870Z,100027.45
2022-08-27T19:24:22.750Z,100031.69
2022-08-27T19:26:55.622Z,100030.05
2022-08-27T19:29:27.369Z,100031.46
2022-08-27T19:31:59.220Z,100027.30
2022-08-27T19:34:31.192Z,100030.05
2022-08-27T19:37:05.713Z,100025.11
2022-08-27T19:39:40.224Z,100028.21
2022-08-27T19:42:12.985Z,100028.86
2022-08-27T19:44:45.337Z,100027.38
2022-08-27T19:47:25.195Z,100026.33
2022-08-27T19:49:57.467Z,100027.40
2022-08-27T19:52:27.817Z,100029.55
2022-08-27T19:55:15.055Z,100034.84
2022-08-27T19:57:47.482Z,100033.48
2022-08-27T20:00:22.111Z,100029.34
2022-08-27T20:02:54.285Z,100034.54
2022-08-27T20:05:25.998Z,100039.13
2022-08-27T20:07:57.738Z,100040.45
2022-08-27T20:10:36.496Z,100038.44
2022-08-27T20:13:11.312Z,100035.42
2022-08-27T20:15:43.429Z,100033.52
2022-08-27T20:18:18.665Z,100030.80
2022-08-27T20:20:50.834Z,100029.95
2022-08-27T20:23:23.290Z,100030.65
2022-08-27T20:26:01.257Z,100031.83
2022-08-27T20:28:39.226Z,100031.31
2022-08-27T20:31:12.044Z,100032.63
2022-08-27T20:33:44.499Z,100031.91
2022-08-27T20:36:15.291Z,100030.23
2022-08-27T20:38:47.570Z,100033.25
2022-08-27T20:41:20.249Z,100037.00
2022-08-27T20:43:52.671Z,100035.80
2022-08-27T20:46:25.861Z,100036.94
2022-08-27T20:48:58.472Z,100036.11
2022-08-27T20:51:28.763Z,100036.48
2022-08-27T20:54:01.136Z,100037.45
2022-08-27T20:56:34.466Z,100043.29
2022-08-27T20:59:24.524Z,100042.77
2022-08-27T21:01:56.196Z,100038.19
2022-08-27T21:04:28.073Z,100034.84
2022-08-27T21:06:59.770Z,100030.27
2022-08-27T21:09:31.785Z,100030.27
2022-08-27T21:12:03.990Z,100030.20
2022-08-27T21:14:35.829Z,100034.95
2022-08-27T21:17:07.660Z,100037.33
2022-08-27T21:19:40.293Z,100038.64
2022-08-27T21:22:12.086Z,100035.20
2022-08-27T21:24:43.942Z,100035.39
2022-08-27T21:27:16.534Z,100038.74
2022-08-27T21:29:46.674Z,100044.77
2022-08-27T21:32:19.897Z,100044.64
2022-08-27T21:34:51.844Z,100043.71
2022-08-27T21:37:24.073Z,100045.49
2022-08-27T21:39:56.271Z,100046.58
2022-08-27T21:42:28.296Z,100040.91
2022-08-27T21:45:00.464Z,100038.67
2022-08-27T21:47:32.844Z,100037.96
2022-08-27T21:50:05.858Z,100036.80
2022-08-27T21:52:36.021Z,100038.64
2022-08-27T21:55:09.569Z,100032.63
2022-08-27T21:57:41.309Z,100033.30
2022-08-27T22:00:37.377Z,100028.45
2022-08-27T22:03:11.623Z,100025.84
2022-08-27T22:05:45.463Z,100030.41
2022-08-27T22:08:19.263Z,100025.94
2022-08-27T22:10:53.896Z,100028.51
2022-08-27T22:13:27.257Z,100028.63
2022-08-27T22:15:59.986Z,100029.03
2022-08-27T22:18:30.527Z,100025.72
2022-08-27T22:21:03.909Z,100022.57
2022-08-27T22:23:34.218Z,100019.42
2022-08-27T22:26:06.037Z,100016.90
2022-08-27T22:28:37.757Z,100012.83
2022-08-27T22:31:13.260Z,100007.52
2022-08-27T22:33:45.155Z,100006.38
2022-08-27T22:36:17.030Z,100008.62
2022-08-27T22:38:49.000Z,100010.28
2022-08-27T22:41:19.731Z,100009.24
2022-08-27T22:43:56.718Z,100008.00
2022-08-27T22:46:29.998Z,100008.33
2022-08-27T22:49:01.747Z,100007.84
2022-08-27T22:51:33.444Z,100008.63
2022-08-27T22:54:05.291Z,100004.41
2022-08-27T22:56:37.286Z,100004.75
2022-08-27T22:59:09.169Z,100002.91
2022-08-27T23:01:40.974Z,100004.44
2022-08-27T23:04:12.939Z,100007.70
2022-08-27T23:06:44.826Z,100006.64
2022-08-27T23:09:16.601Z,100008.55
2022-08-27T23:11:48.876Z,100007.98
2022-08-27T23:14:20.766Z,100005.83
2022-08-27T23:16:52.581Z,100009.05
2022-08-27T23:19:24.341Z,100007.84
2022-08-27T23:21:56.160Z,100005.23
2022-08-27T23:24:28.154Z,100007.56
2022-08-27T23:27:16.771Z,100005.12
2022-08-27T23:29:48.996Z,100004.73
2022-08-27T23:32:20.739Z,100010.48
2022-08-27T23:34:52.500Z,100008.05
2022-08-27T23:37:25.146Z,100018.41
2022-08-27T23:39:55.325Z,100017.23
2022-08-27T23:42:27.717Z,100018.83
2022-08-27T23:44:59.368Z,100021.42
2022-08-27T23:47:31.164Z,100021.64
2022-08-27T23:50:03.194Z,100020.59
2022-08-27T23:52:35.789Z,100015.86
2022-08-27T23:55:10.853Z,100021.90
2022-08-27T23:57:42.573Z,100019.16
